Aviation Digital Data Service (ADDS)

Output produced by METARs form (1632 UTC 22 June 2017)
found at http://aviationweather.gov/adds/metars/
 
KATL 221556Z 2216/2318 13006KT P6SM VCSH SCT012 BKN025 
     FM221800 15008KT P6SM VCSH BKN035 
     FM222000 17008KT 6SM SHRA BKN035 
     FM230100 13007KT P6SM OVC025 
     FM230900 20007KT P6SM SCT007 BKN015 
     FM231500 20011KT P6SM SCT025